createdAt,value
2022-11-08T00:02:26.774Z,14.57
2022-11-08T00:04:53.626Z,15.68
2022-11-08T00:07:39.258Z,15.10
2022-11-08T00:10:25.231Z,14.82
2022-11-08T00:13:10.864Z,15.30
2022-11-08T00:15:39.014Z,13.85
2022-11-08T00:18:07.280Z,18.15
2022-11-08T00:20:34.934Z,13.88
2022-11-08T00:23:01.819Z,14.30
2022-11-08T00:25:28.584Z,13.93
2022-11-08T00:27:55.457Z,15.80
2022-11-08T00:30:22.239Z,13.85
2022-11-08T00:32:48.910Z,14.80
2022-11-08T00:35:15.911Z,13.88
2022-11-08T00:37:42.755Z,14.90
2022-11-08T00:40:10.286Z,13.40
2022-11-08T00:42:37.204Z,14.02
2022-11-08T00:45:04.363Z,14.35
2022-11-08T00:47:31.214Z,14.60
2022-11-08T00:49:57.979Z,14.75
2022-11-08T00:52:24.690Z,14.50
2022-11-08T00:54:51.616Z,14.32
2022-11-08T00:57:18.418Z,14.43
2022-11-08T00:59:45.151Z,14.38
2022-11-08T01:02:11.951Z,13.73
2022-11-08T01:04:38.760Z,15.07
2022-11-08T01:07:05.447Z,14.40
2022-11-08T01:09:32.342Z,14.50
2022-11-08T01:11:59.165Z,14.32
2022-11-08T01:14:25.851Z,15.15
2022-11-08T01:16:52.608Z,14.18
2022-11-08T01:19:19.507Z,14.32
2022-11-08T01:21:47.243Z,14.25
2022-11-08T01:24:14.083Z,13.50
2022-11-08T01:26:41.014Z,14.43
2022-11-08T01:29:07.860Z,14.57
2022-11-08T01:31:34.571Z,13.68
2022-11-08T01:34:01.568Z,13.60
2022-11-08T01:36:29.280Z,14.20
2022-11-08T01:38:58.114Z,13.93
2022-11-08T01:41:26.508Z,13.77
2022-11-08T01:43:57.694Z,13.10
2022-11-08T01:46:33.565Z,13.38
2022-11-08T01:49:27.298Z,13.60
2022-11-08T01:52:10.998Z,13.68
2022-11-08T01:54:59.040Z,13.15
2022-11-08T01:57:48.101Z,12.95
2022-11-08T02:00:16.944Z,15.57
2022-11-08T02:02:46.046Z,12.70
2022-11-08T02:05:26.047Z,14.10
2022-11-08T02:10:29.945Z,15.45
2022-11-08T02:12:57.368Z,14.85
2022-11-08T02:15:25.496Z,13.40
2022-11-08T02:17:54.012Z,14.55
2022-11-08T02:20:21.249Z,14.20
2022-11-08T02:23:10.839Z,15.35
2022-11-08T02:25:37.541Z,13.38
2022-11-08T02:28:04.475Z,14.75
2022-11-08T02:30:36.142Z,13.27
2022-11-08T02:33:23.183Z,13.93
2022-11-08T02:35:54.955Z,14.38
2022-11-08T02:38:23.068Z,14.02
2022-11-08T02:40:51.025Z,12.18
2022-11-08T02:43:18.379Z,12.55
2022-11-08T02:45:45.842Z,13.50
2022-11-08T02:48:13.133Z,14.45
2022-11-08T02:50:40.649Z,12.82
2022-11-08T02:53:08.293Z,12.88
2022-11-08T02:55:35.487Z,13.68
2022-11-08T02:58:03.126Z,13.20
2022-11-08T03:00:30.130Z,13.30
2022-11-08T03:02:58.234Z,13.07
2022-11-08T03:05:26.854Z,13.07
2022-11-08T03:07:54.346Z,13.73
2022-11-08T03:10:22.955Z,13.18
2022-11-08T03:13:01.495Z,13.50
2022-11-08T03:15:29.471Z,11.60
2022-11-08T03:17:57.224Z,13.32
2022-11-08T03:20:29.563Z,13.60
2022-11-08T03:23:04.314Z,13.20
2022-11-08T03:25:31.686Z,13.73
2022-11-08T03:28:03.060Z,13.48
2022-11-08T03:30:30.118Z,13.55
2022-11-08T03:32:56.970Z,14.38
2022-11-08T03:35:23.735Z,14.43
2022-11-08T03:37:55.283Z,14.05
2022-11-08T03:40:23.067Z,12.68
2022-11-08T03:42:50.366Z,13.90
2022-11-08T03:45:17.244Z,14.55
2022-11-08T03:47:46.491Z,12.55
2022-11-08T03:50:15.452Z,12.65
2022-11-08T03:52:42.884Z,14.63
2022-11-08T03:55:13.232Z,13.63
2022-11-08T03:57:40.860Z,13.35
2022-11-08T04:00:10.228Z,13.88
2022-11-08T04:02:37.385Z,15.00
2022-11-08T04:05:05.468Z,13.27
2022-11-08T04:07:32.329Z,12.77
2022-11-08T04:09:59.178Z,12.30
2022-11-08T04:12:44.224Z,14.52
2022-11-08T04:15:14.985Z,13.68
2022-11-08T04:18:05.504Z,12.27
2022-11-08T04:20:51.412Z,12.02
2022-11-08T04:23:18.952Z,11.75
2022-11-08T04:25:45.719Z,13.18
2022-11-08T04:28:12.492Z,12.48
2022-11-08T04:30:39.199Z,12.50
2022-11-08T04:33:07.155Z,10.90
2022-11-08T04:35:34.150Z,12.35
2022-11-08T04:38:02.499Z,12.30
2022-11-08T04:40:31.754Z,11.35
2022-11-08T04:42:58.615Z,12.45
2022-11-08T04:45:25.297Z,14.18
2022-11-08T04:47:52.032Z,13.40
2022-11-08T04:50:18.816Z,13.98
2022-11-08T04:52:52.270Z,11.45
2022-11-08T04:55:19.835Z,11.63
2022-11-08T04:57:47.131Z,11.65
2022-11-08T05:00:14.706Z,12.07
2022-11-08T05:02:41.777Z,11.48
2022-11-08T05:05:09.757Z,10.98
2022-11-08T05:07:36.456Z,12.25
2022-11-08T05:10:03.664Z,11.18
2022-11-08T05:12:30.397Z,12.18
2022-11-08T05:14:57.148Z,11.80
2022-11-08T05:17:23.921Z,11.20
2022-11-08T05:20:09.454Z,10.68
2022-11-08T05:22:54.937Z,11.27
2022-11-08T05:25:21.629Z,10.13
2022-11-08T05:27:48.324Z,11.55
2022-11-08T05:30:15.299Z,11.10
2022-11-08T05:32:42.242Z,10.32
2022-11-08T05:35:09.133Z,9.57
2022-11-08T05:37:35.869Z,10.73
2022-11-08T05:40:02.571Z,10.60
2022-11-08T05:42:29.550Z,9.30
2022-11-08T05:44:56.338Z,9.63
2022-11-08T05:47:23.044Z,10.32
2022-11-08T05:49:49.785Z,10.40
2022-11-08T05:52:16.584Z,10.35
2022-11-08T05:54:43.263Z,9.90
2022-11-08T05:57:10.026Z,10.13
2022-11-08T05:59:36.771Z,10.90
2022-11-08T06:02:03.777Z,10.05
2022-11-08T06:04:30.707Z,9.45
2022-11-08T06:06:57.504Z,8.38
2022-11-08T06:09:24.312Z,8.57
2022-11-08T06:11:51.052Z,8.75
2022-11-08T06:14:18.017Z,8.50
2022-11-08T06:16:44.759Z,8.13
2022-11-08T06:19:11.446Z,7.55
2022-11-08T06:21:38.390Z,9.27
2022-11-08T06:24:05.617Z,8.73
2022-11-08T06:26:32.380Z,8.38
2022-11-08T06:28:59.186Z,9.05
2022-11-08T06:31:25.879Z,9.43
2022-11-08T06:33:52.697Z,10.02
2022-11-08T06:36:21.383Z,11.93
2022-11-08T06:38:48.104Z,12.05
2022-11-08T06:41:19.620Z,12.48
2022-11-08T06:43:46.839Z,12.30
2022-11-08T06:46:13.668Z,12.95
2022-11-08T06:48:40.583Z,12.77
2022-11-08T06:51:07.616Z,13.60
2022-11-08T06:53:34.510Z,13.90
2022-11-08T06:56:02.205Z,13.02
2022-11-08T06:58:29.683Z,16.50
2022-11-08T07:00:56.510Z,16.60
2022-11-08T07:03:23.241Z,13.40
2022-11-08T07:05:50.051Z,11.43
2022-11-08T07:08:22.321Z,11.82
2022-11-08T07:10:50.234Z,11.88
2022-11-08T07:13:17.375Z,10.50
2022-11-08T07:15:45.344Z,11.48
2022-11-08T07:18:14.457Z,11.98
2022-11-08T07:20:42.836Z,11.57
2022-11-08T07:23:10.730Z,12.18
2022-11-08T07:25:38.392Z,15.77
2022-11-08T07:28:07.397Z,15.57
2022-11-08T07:30:35.523Z,13.20
2022-11-08T07:33:02.819Z,13.70
2022-11-08T07:35:30.084Z,13.07
2022-11-08T07:37:57.070Z,15.57
2022-11-08T07:40:24.216Z,15.30
2022-11-08T07:43:11.253Z,20.48
2022-11-08T07:45:38.068Z,15.63
2022-11-08T07:48:12.025Z,15.75
2022-11-08T07:50:40.821Z,14.90
2022-11-08T07:53:07.539Z,23.27
2022-11-08T07:55:37.187Z,16.52
2022-11-08T07:58:04.407Z,14.82
2022-11-08T08:00:31.767Z,22.48
2022-11-08T08:03:02.261Z,19.45
2022-11-08T08:05:34.537Z,16.45
2022-11-08T08:08:02.571Z,14.77
2022-11-08T08:10:30.681Z,15.15
2022-11-08T08:12:58.349Z,18.08
2022-11-08T08:15:25.820Z,15.65
2022-11-08T08:17:52.852Z,20.52
2022-11-08T08:20:20.159Z,15.35
2022-11-08T08:22:48.486Z,14.52
2022-11-08T08:25:16.158Z,17.05
2022-11-08T08:27:53.472Z,15.48
2022-11-08T08:30:20.639Z,15.18
2022-11-08T08:33:02.169Z,14.75
2022-11-08T08:35:36.393Z,13.88
2022-11-08T08:38:04.794Z,14.10
2022-11-08T08:40:32.464Z,13.82
2022-11-08T08:43:01.140Z,16.10
2022-11-08T08:45:28.239Z,14.82
2022-11-08T08:47:56.982Z,15.57
2022-11-08T08:50:25.618Z,15.85
2022-11-08T08:52:52.507Z,14.63
2022-11-08T08:55:19.420Z,14.15
2022-11-08T08:57:47.702Z,15.00
2022-11-08T09:03:04.934Z,14.88
2022-11-08T09:05:32.690Z,19.40
2022-11-08T09:07:59.543Z,20.17
2022-11-08T09:10:27.210Z,14.40
2022-11-08T09:12:54.369Z,18.88
2022-11-08T09:15:21.481Z,14.18
2022-11-08T09:17:48.279Z,14.27
2022-11-08T09:20:15.167Z,12.30
2022-11-08T09:22:42.094Z,14.65
2022-11-08T09:25:10.619Z,14.82
2022-11-08T09:27:37.374Z,12.32
2022-11-08T09:30:05.252Z,12.35
2022-11-08T09:32:54.339Z,11.95
2022-11-08T09:35:19.515Z,12.00
2022-11-08T09:37:49.680Z,11.68
2022-11-08T09:40:33.188Z,12.27
2022-11-08T09:43:38.196Z,12.43
2022-11-08T09:46:09.548Z,12.63
2022-11-08T09:48:40.983Z,17.77
2022-11-08T09:51:13.079Z,13.70
2022-11-08T09:53:54.267Z,13.73
2022-11-08T09:56:38.311Z,13.88
2022-11-08T09:59:33.704Z,13.65
2022-11-08T10:02:00.665Z,13.80
2022-11-08T10:04:33.591Z,12.88
2022-11-08T10:07:39.151Z,13.38
2022-11-08T10:10:27.666Z,13.02
2022-11-08T10:13:38.333Z,12.80
2022-11-08T10:16:39.556Z,13.65
2022-11-08T10:19:17.195Z,15.50
2022-11-08T10:22:05.613Z,13.70
2022-11-08T10:24:36.836Z,12.75
2022-11-08T10:27:14.941Z,11.82
2022-11-08T10:29:44.977Z,12.80
2022-11-08T10:34:59.194Z,14.18
2022-11-08T10:37:27.801Z,13.88
2022-11-08T10:39:59.669Z,14.32
2022-11-08T10:42:44.491Z,13.57
2022-11-08T10:45:11.253Z,12.98
2022-11-08T10:47:39.534Z,13.82
2022-11-08T10:50:18.241Z,14.02
2022-11-08T10:52:52.412Z,14.35
2022-11-08T10:55:38.597Z,14.85
2022-11-08T10:58:29.376Z,18.08
2022-11-08T11:01:01.831Z,14.43
2022-11-08T11:03:31.322Z,16.95
2022-11-08T11:06:04.285Z,14.98
2022-11-08T11:08:31.836Z,13.73
2022-11-08T11:11:23.758Z,14.35
2022-11-08T11:14:22.876Z,16.15
2022-11-08T11:17:07.763Z,12.35
2022-11-08T11:19:34.978Z,14.05
2022-11-08T11:22:09.526Z,14.60
2022-11-08T11:24:46.433Z,19.30
2022-11-08T11:27:24.157Z,13.57
2022-11-08T11:30:21.380Z,17.77
2022-11-08T11:33:25.429Z,14.68
2022-11-08T11:35:57.837Z,14.13
2022-11-08T11:38:36.748Z,15.35
2022-11-08T11:41:37.456Z,14.25
2022-11-08T11:44:21.952Z,14.55
2022-11-08T11:46:58.594Z,14.10
2022-11-08T11:49:29.396Z,17.27
2022-11-08T11:51:57.083Z,14.05
2022-11-08T11:54:30.303Z,15.45
2022-11-08T11:57:01.888Z,13.85
2022-11-08T11:59:34.648Z,13.88
2022-11-08T12:02:12.809Z,14.02
2022-11-08T12:04:39.615Z,17.77
2022-11-08T12:07:15.461Z,14.60
2022-11-08T12:10:13.261Z,15.05
2022-11-08T12:12:45.609Z,15.35
2022-11-08T12:15:21.287Z,16.75
2022-11-08T12:17:58.349Z,14.60
2022-11-08T12:20:43.682Z,16.45
2022-11-08T12:23:10.367Z,14.35
2022-11-08T12:26:21.127Z,17.52
2022-11-08T12:29:12.560Z,14.77
2022-11-08T12:32:04.677Z,16.83
2022-11-08T12:34:49.800Z,15.05
2022-11-08T12:37:35.037Z,14.13
2022-11-08T12:40:33.925Z,14.52
2022-11-08T12:43:00.677Z,13.13
2022-11-08T12:45:36.306Z,12.77
2022-11-08T12:48:23.783Z,13.07
2022-11-08T12:51:02.681Z,13.02
2022-11-08T12:53:54.267Z,13.30
2022-11-08T12:56:25.587Z,14.02
2022-11-08T12:58:54.817Z,14.05
2022-11-08T13:01:23.174Z,13.27
2022-11-08T13:04:20.367Z,13.90
2022-11-08T13:06:56.767Z,14.13
2022-11-08T13:09:44.266Z,14.65
2022-11-08T13:12:20.240Z,14.40
2022-11-08T13:14:47.512Z,13.27
2022-11-08T13:17:26.292Z,15.50
2022-11-08T13:19:59.562Z,13.85
2022-11-08T13:22:30.345Z,14.25
2022-11-08T13:25:27.720Z,15.88
2022-11-08T13:27:54.674Z,15.18
2022-11-08T13:30:21.407Z,13.25
2022-11-08T13:33:00.548Z,13.75
2022-11-08T13:35:45.957Z,17.10
2022-11-08T13:39:03.359Z,13.30
2022-11-08T13:41:30.225Z,15.77
2022-11-08T13:43:58.952Z,14.98
2022-11-08T13:46:29.660Z,17.73
2022-11-08T13:49:05.556Z,13.85
2022-11-08T13:51:34.096Z,16.77
2022-11-08T13:54:26.539Z,19.75
2022-11-08T13:56:57.685Z,13.68
2022-11-08T13:59:30.699Z,13.43
2022-11-08T14:01:59.540Z,15.52
2022-11-08T14:04:40.465Z,14.45
2022-11-08T14:07:28.029Z,12.50
2022-11-08T14:10:17.900Z,12.88
2022-11-08T14:12:55.471Z,15.25
2022-11-08T14:15:22.346Z,12.50
2022-11-08T14:18:04.306Z,12.30
2022-11-08T14:20:43.087Z,13.60
2022-11-08T14:23:18.850Z,14.90
2022-11-08T14:26:03.148Z,15.02
2022-11-08T14:28:33.785Z,12.18
2022-11-08T14:31:03.793Z,11.98
2022-11-08T14:36:08.344Z,12.10
2022-11-08T14:39:05.800Z,11.18
2022-11-08T14:41:33.824Z,12.63
2022-11-08T14:44:02.741Z,11.43
2022-11-08T14:46:39.411Z,11.40
2022-11-08T14:49:10.909Z,14.75
2022-11-08T14:51:38.121Z,11.98
2022-11-08T14:54:17.274Z,12.43
2022-11-08T14:56:45.225Z,13.02
2022-11-08T14:59:13.632Z,12.05
2022-11-08T15:01:43.941Z,14.25
2022-11-08T15:04:17.115Z,13.05
2022-11-08T15:06:47.423Z,12.85
2022-11-08T15:09:34.069Z,12.88
2022-11-08T15:12:04.825Z,13.88
2022-11-08T15:14:35.841Z,12.35
2022-11-08T15:17:03.867Z,12.38
2022-11-08T15:19:44.625Z,12.65
2022-11-08T15:22:30.919Z,13.30
2022-11-08T15:25:19.468Z,13.48
2022-11-08T15:27:57.514Z,13.23
2022-11-08T15:30:30.472Z,12.85
2022-11-08T15:32:57.344Z,13.93
2022-11-08T15:35:35.063Z,12.85
2022-11-08T15:38:05.021Z,12.75
2022-11-08T15:43:00.979Z,12.52
2022-11-08T15:45:32.322Z,13.90
2022-11-08T15:48:08.230Z,15.85
2022-11-08T15:50:35.017Z,12.95
2022-11-08T15:53:03.717Z,13.55
2022-11-08T15:55:40.207Z,13.27
2022-11-08T15:58:21.465Z,13.52
2022-11-08T16:00:49.654Z,16.60
2022-11-08T16:03:16.387Z,15.18
2022-11-08T16:05:43.310Z,12.52
2022-11-08T16:08:10.233Z,12.85
2022-11-08T16:10:40.402Z,14.25
2022-11-08T16:13:09.702Z,15.65
2022-11-08T16:15:38.278Z,12.85
2022-11-08T16:18:05.066Z,13.15
2022-11-08T16:20:36.413Z,12.13
2022-11-08T16:23:05.877Z,11.75
2022-11-08T16:25:49.195Z,12.23
2022-11-08T16:28:22.172Z,16.42
2022-11-08T16:30:49.060Z,12.65
2022-11-08T16:33:27.589Z,14.80
2022-11-08T16:35:55.757Z,12.95
2022-11-08T16:38:29.282Z,15.52
2022-11-08T16:40:56.056Z,18.33
2022-11-08T16:43:22.748Z,16.05
2022-11-08T16:46:06.968Z,17.42
2022-11-08T16:48:36.761Z,16.92
2022-11-08T16:51:06.398Z,18.23
2022-11-08T16:53:35.454Z,13.10
2022-11-08T16:56:02.208Z,13.47
2022-11-08T16:58:29.096Z,14.02
2022-11-08T17:00:57.313Z,14.70
2022-11-08T17:03:26.077Z,12.88
2022-11-08T17:05:54.181Z,14.02
2022-11-08T17:08:21.945Z,14.88
2022-11-08T17:10:48.878Z,14.38
2022-11-08T17:13:18.092Z,13.35
2022-11-08T17:15:45.437Z,18.40
2022-11-08T17:18:14.708Z,13.52
2022-11-08T17:20:41.848Z,14.20
2022-11-08T17:23:09.232Z,13.65
2022-11-08T17:25:40.017Z,14.98
2022-11-08T17:28:07.730Z,14.48
2022-11-08T17:30:35.420Z,15.93
2022-11-08T17:33:02.212Z,13.73
2022-11-08T17:35:28.972Z,14.57
2022-11-08T17:37:56.260Z,13.95
2022-11-08T17:40:23.168Z,13.82
2022-11-08T17:42:49.856Z,13.57
2022-11-08T17:45:16.575Z,15.00
2022-11-08T17:47:43.463Z,13.68
2022-11-08T17:50:10.509Z,16.00
2022-11-08T17:52:37.645Z,14.00
2022-11-08T17:55:04.953Z,13.98
2022-11-08T17:57:31.639Z,17.73
2022-11-08T17:59:58.482Z,15.40
2022-11-08T18:02:27.624Z,14.27
2022-11-08T18:04:55.007Z,15.20
2022-11-08T18:07:21.860Z,17.05
2022-11-08T18:09:48.787Z,14.45
2022-11-08T18:12:15.803Z,13.98
2022-11-08T18:14:42.549Z,16.33
2022-11-08T18:17:09.404Z,14.57
2022-11-08T18:19:37.343Z,15.20
2022-11-08T18:22:04.851Z,18.02
2022-11-08T18:24:31.928Z,16.85
2022-11-08T18:26:58.914Z,15.48
2022-11-08T18:29:25.653Z,16.65
2022-11-08T18:31:52.566Z,16.00
2022-11-08T18:34:19.755Z,16.10
2022-11-08T18:36:49.000Z,16.77
2022-11-08T18:39:19.466Z,19.08
2022-11-08T18:41:46.315Z,20.10
2022-11-08T18:44:12.999Z,19.13
2022-11-08T18:46:43.151Z,16.60
2022-11-08T18:49:10.445Z,16.30
2022-11-08T18:51:37.159Z,16.33
2022-11-08T18:54:04.115Z,15.55
2022-11-08T18:56:30.897Z,14.55
2022-11-08T18:58:57.716Z,16.15
2022-11-08T19:01:24.768Z,15.60
2022-11-08T19:03:51.513Z,15.90
2022-11-08T19:06:19.497Z,15.40
2022-11-08T19:08:46.435Z,14.90
2022-11-08T19:11:14.561Z,15.50
2022-11-08T19:13:41.779Z,23.17
2022-11-08T19:16:15.178Z,19.67
2022-11-08T19:18:43.061Z,16.33
2022-11-08T19:21:18.963Z,17.08
2022-11-08T19:23:46.547Z,16.45
2022-11-08T19:26:19.201Z,16.55
2022-11-08T19:28:46.755Z,16.77
2022-11-08T19:31:15.555Z,13.50
2022-11-08T19:33:42.347Z,11.73
2022-11-08T19:36:13.223Z,15.88
2022-11-08T19:38:40.562Z,12.60
2022-11-08T19:41:12.573Z,12.30
2022-11-08T19:43:41.227Z,13.15
2022-11-08T19:46:11.823Z,12.30
2022-11-08T19:48:40.853Z,15.20
2022-11-08T19:51:13.755Z,11.35
2022-11-08T19:53:41.282Z,15.18
2022-11-08T19:56:10.657Z,12.40
2022-11-08T19:58:38.626Z,12.88
2022-11-08T20:01:18.194Z,14.05
2022-11-08T20:03:51.424Z,14.32
2022-11-08T20:06:20.801Z,14.82
2022-11-08T20:09:00.518Z,13.05
2022-11-08T20:11:30.521Z,12.70
2022-11-08T20:16:30.355Z,15.43
2022-11-08T20:19:02.637Z,16.17
2022-11-08T20:21:32.152Z,12.20
2022-11-08T20:24:05.975Z,14.77
2022-11-08T20:26:34.926Z,11.80
2022-11-08T20:29:01.676Z,11.20
2022-11-08T20:31:28.706Z,11.40
2022-11-08T20:33:56.183Z,11.90
2022-11-08T20:36:25.187Z,12.98
2022-11-08T20:38:59.900Z,13.25
2022-11-08T20:41:30.115Z,12.88
2022-11-08T20:43:59.831Z,12.32
2022-11-08T20:46:26.636Z,11.88
2022-11-08T20:49:00.356Z,13.10
2022-11-08T20:51:29.271Z,14.35
2022-11-08T20:53:57.144Z,16.05
2022-11-08T20:56:24.882Z,12.80
2022-11-08T20:58:52.686Z,13.45
2022-11-08T21:01:25.217Z,14.88
2022-11-08T21:03:52.843Z,15.27
2022-11-08T21:06:24.446Z,16.38
2022-11-08T21:09:01.929Z,16.73
2022-11-08T21:11:34.733Z,14.70
2022-11-08T21:14:02.514Z,16.40
2022-11-08T21:16:33.104Z,16.48
2022-11-08T21:19:05.570Z,16.27
2022-11-08T21:21:33.269Z,15.13
2022-11-08T21:24:00.148Z,17.17
2022-11-08T21:26:27.162Z,13.95
2022-11-08T21:28:54.081Z,18.92
2022-11-08T21:31:20.897Z,14.07
2022-11-08T21:33:48.013Z,14.68
2022-11-08T21:36:15.552Z,15.23
2022-11-08T21:38:42.247Z,14.40
2022-11-08T21:41:11.036Z,14.98
2022-11-08T21:43:39.826Z,18.25
2022-11-08T21:46:20.592Z,14.20
2022-11-08T21:48:52.773Z,14.80
2022-11-08T21:51:19.503Z,12.52
2022-11-08T21:53:54.113Z,12.90
2022-11-08T21:56:22.870Z,15.85
2022-11-08T21:58:49.639Z,14.88
2022-11-08T22:01:16.967Z,13.63
2022-11-08T22:03:43.827Z,13.88
2022-11-08T22:06:10.592Z,14.80
2022-11-08T22:08:37.387Z,15.65
2022-11-08T22:11:04.218Z,14.95
2022-11-08T22:13:30.965Z,17.35
2022-11-08T22:15:57.714Z,14.60
2022-11-08T22:18:36.749Z,14.90
2022-11-08T22:21:28.562Z,15.43
2022-11-08T22:23:55.511Z,15.43
2022-11-08T22:26:22.278Z,15.10
2022-11-08T22:28:49.070Z,14.68
2022-11-08T22:31:16.057Z,15.80
2022-11-08T22:33:42.815Z,14.20
2022-11-08T22:36:09.781Z,16.83
2022-11-08T22:38:36.566Z,15.45
2022-11-08T22:41:03.391Z,15.25
2022-11-08T22:43:30.212Z,16.15
2022-11-08T22:45:56.975Z,13.93
2022-11-08T22:48:23.818Z,14.63
2022-11-08T22:50:50.563Z,13.95
2022-11-08T22:53:17.706Z,16.55
2022-11-08T22:55:45.266Z,15.85
2022-11-08T22:58:12.810Z,13.82
2022-11-08T23:00:40.680Z,13.18
2022-11-08T23:03:07.535Z,13.32
2022-11-08T23:05:34.247Z,10.80
2022-11-08T23:08:01.016Z,9.90
2022-11-08T23:10:27.854Z,10.85
2022-11-08T23:13:13.252Z,10.23
2022-11-08T23:15:58.917Z,10.85
2022-11-08T23:18:27.455Z,9.52
2022-11-08T23:21:13.208Z,12.32
2022-11-08T23:23:58.758Z,10.45
2022-11-08T23:27:01.300Z,10.98
2022-11-08T23:29:46.304Z,9.77
2022-11-08T23:32:13.227Z,10.77
2022-11-08T23:34:39.929Z,9.15
2022-11-08T23:37:06.677Z,9.10
2022-11-08T23:39:33.494Z,10.23
2022-11-08T23:42:19.070Z,9.65
2022-11-08T23:44:45.869Z,10.68
2022-11-08T23:47:12.572Z,12.80
2022-11-08T23:49:39.292Z,10.15
2022-11-08T23:52:06.084Z,10.18
2022-11-08T23:54:32.809Z,11.00
2022-11-08T23:56:59.931Z,10.18
2022-11-08T23:59:26.812Z,10.13
